sensor_id;sensor_type;location;lat;lon;timestamp;pressure;altitude;pressure_sealevel;temperature;humidity
29383;BME280;16365;51.598;7.668;2023-02-22T00:00:57;100904.63;;;14.44;53.50
29383;BME280;16365;51.598;7.668;2023-02-22T00:03:32;100903.72;;;14.39;53.10
29383;BME280;16365;51.598;7.668;2023-02-22T00:06:01;100900.69;;;14.32;53.47
29383;BME280;16365;51.598;7.668;2023-02-22T00:08:35;100898.97;;;14.28;53.35
29383;BME280;16365;51.598;7.668;2023-02-22T00:11:05;100896.16;;;14.28;53.80
29383;BME280;16365;51.598;7.668;2023-02-22T00:13:36;100905.22;;;14.25;53.80
29383;BME280;16365;51.598;7.668;2023-02-22T00:16:03;100892.44;;;14.24;53.60
29383;BME280;16365;51.598;7.668;2023-02-22T00:18:30;100893.94;;;14.21;53.89
29383;BME280;16365;51.598;7.668;2023-02-22T00:20:58;100887.09;;;14.19;53.74
29383;BME280;16365;51.598;7.668;2023-02-22T00:23:28;100887.78;;;14.15;53.83
29383;BME280;16365;51.598;7.668;2023-02-22T00:25:56;100883.72;;;14.13;53.24
29383;BME280;16365;51.598;7.668;2023-02-22T00:28:23;100881.63;;;14.10;53.66
29383;BME280;16365;51.598;7.668;2023-02-22T00:30:51;100881.50;;;14.06;53.50
29383;BME280;16365;51.598;7.668;2023-02-22T00:33:17;100881.06;;;14.04;54.05
29383;BME280;16365;51.598;7.668;2023-02-22T00:35:44;100875.34;;;14.01;53.80
29383;BME280;16365;51.598;7.668;2023-02-22T00:38:13;100883.59;;;13.97;53.46
29383;BME280;16365;51.598;7.668;2023-02-22T00:40:40;100881.16;;;13.96;54.10
29383;BME280;16365;51.598;7.668;2023-02-22T00:43:06;100875.13;;;13.94;53.78
29383;BME280;16365;51.598;7.668;2023-02-22T00:45:34;100871.03;;;13.91;54.27
29383;BME280;16365;51.598;7.668;2023-02-22T00:48:02;100867.81;;;13.89;53.67
29383;BME280;16365;51.598;7.668;2023-02-22T00:50:30;100864.19;;;13.88;54.10
29383;BME280;16365;51.598;7.668;2023-02-22T00:52:59;100862.09;;;13.85;54.17
29383;BME280;16365;51.598;7.668;2023-02-22T00:55:28;100861.66;;;13.83;53.70
29383;BME280;16365;51.598;7.668;2023-02-22T00:57:55;100860.69;;;13.79;54.03
29383;BME280;16365;51.598;7.668;2023-02-22T01:00:25;100868.56;;;13.77;53.73
29383;BME280;16365;51.598;7.668;2023-02-22T01:02:52;100862.56;;;13.75;54.13
29383;BME280;16365;51.598;7.668;2023-02-22T01:05:22;100859.31;;;13.73;54.02
29383;BME280;16365;51.598;7.668;2023-02-22T01:07:49;100854.88;;;13.72;54.55
29383;BME280;16365;51.598;7.668;2023-02-22T01:10:17;100860.44;;;13.72;54.67
29383;BME280;16365;51.598;7.668;2023-02-22T01:12:45;100850.47;;;13.71;54.58
29383;BME280;16365;51.598;7.668;2023-02-22T01:15:13;100850.47;;;13.71;54.73
29383;BME280;16365;51.598;7.668;2023-02-22T01:17:40;100851.28;;;13.72;54.30
29383;BME280;16365;51.598;7.668;2023-02-22T01:20:10;100846.50;;;13.72;54.37
29383;BME280;16365;51.598;7.668;2023-02-22T01:22:40;100841.75;;;13.73;54.06
29383;BME280;16365;51.598;7.668;2023-02-22T01:25:09;100846.19;;;13.74;54.95
29383;BME280;16365;51.598;7.668;2023-02-22T01:27:36;100840.63;;;13.74;54.04
29383;BME280;16365;51.598;7.668;2023-02-22T01:30:05;100842.25;;;13.75;54.56
29383;BME280;16365;51.598;7.668;2023-02-22T01:32:35;100837.81;;;13.74;54.72
29383;BME280;16365;51.598;7.668;2023-02-22T01:35:12;100834.91;;;13.70;54.75
29383;BME280;16365;51.598;7.668;2023-02-22T01:37:39;100841.28;;;13.71;54.47
29383;BME280;16365;51.598;7.668;2023-02-22T01:40:08;100838.38;;;13.67;54.36
29383;BME280;16365;51.598;7.668;2023-02-22T01:42:35;100836.75;;;13.66;53.99
29383;BME280;16365;51.598;7.668;2023-02-22T01:48:35;100819.09;;;13.62;54.81
29383;BME280;16365;51.598;7.668;2023-02-22T01:53:53;100817.72;;;13.56;54.49
29383;BME280;16365;51.598;7.668;2023-02-22T01:56:22;100814.56;;;13.57;55.06
29383;BME280;16365;51.598;7.668;2023-02-22T01:58:59;100812.81;;;13.53;55.10
29383;BME280;16365;51.598;7.668;2023-02-22T02:01:27;100806.91;;;13.54;54.41
29383;BME280;16365;51.598;7.668;2023-02-22T02:03:56;100805.28;;;13.53;54.46
29383;BME280;16365;51.598;7.668;2023-02-22T02:06:26;100802.84;;;13.52;54.21
29383;BME280;16365;51.598;7.668;2023-02-22T02:08:59;100803.19;;;13.50;54.71
29383;BME280;16365;51.598;7.668;2023-02-22T02:11:28;100795.16;;;13.49;54.56
29383;BME280;16365;51.598;7.668;2023-02-22T02:13:56;100799.47;;;13.46;54.41
29383;BME280;16365;51.598;7.668;2023-02-22T02:16:26;100799.47;;;13.46;54.68
29383;BME280;16365;51.598;7.668;2023-02-22T02:18:57;100800.28;;;13.47;55.16
29383;BME280;16365;51.598;7.668;2023-02-22T02:21:40;100797.03;;;13.45;54.67
29383;BME280;16365;51.598;7.668;2023-02-22T02:35:14;100789.38;;;13.42;54.50
29383;BME280;16365;51.598;7.668;2023-02-22T02:38:10;100791.34;;;13.41;55.34
29383;BME280;16365;51.598;7.668;2023-02-22T02:41:02;100789.38;;;13.42;54.36
29383;BME280;16365;51.598;7.668;2023-02-22T02:43:36;100778.22;;;13.42;54.18
29383;BME280;16365;51.598;7.668;2023-02-22T02:46:13;100784.97;;;13.41;54.63
29383;BME280;16365;51.598;7.668;2023-02-22T02:48:45;100780.56;;;13.40;54.14
29383;BME280;16365;51.598;7.668;2023-02-22T02:51:15;100780.88;;;13.38;54.52
29383;BME280;16365;51.598;7.668;2023-02-22T02:53:45;100770.78;;;13.33;54.06
29383;BME280;16365;51.598;7.668;2023-02-22T02:56:14;100768.34;;;13.32;54.66
29383;BME280;16365;51.598;7.668;2023-02-22T02:58:49;100770.53;;;13.26;54.18
29383;BME280;16365;51.598;7.668;2023-02-22T03:01:44;100768.44;;;13.23;54.43
29383;BME280;16365;51.598;7.668;2023-02-22T03:07:09;100766.88;;;13.13;53.89
29383;BME280;16365;51.598;7.668;2023-02-22T03:12:48;100753.03;;;13.05;54.24
29383;BME280;16365;51.598;7.668;2023-02-22T03:18:48;100752.81;;;12.98;54.51
29383;BME280;16365;51.598;7.668;2023-02-22T03:21:37;100746.28;;;12.94;53.81
29383;BME280;16365;51.598;7.668;2023-02-22T03:29:57;100743.59;;;12.85;53.92
29383;BME280;16365;51.598;7.668;2023-02-22T03:32:29;100749.50;;;12.83;53.77
29383;BME280;16365;51.598;7.668;2023-02-22T03:35:07;100734.66;;;12.79;53.68
29383;BME280;16365;51.598;7.668;2023-02-22T03:37:38;100736.84;;;12.74;53.67
29383;BME280;16365;51.598;7.668;2023-02-22T03:40:08;100742.75;;;12.72;53.83
29383;BME280;16365;51.598;7.668;2023-02-22T03:42:47;100741.00;;;12.68;54.06
29383;BME280;16365;51.598;7.668;2023-02-22T03:45:18;100736.09;;;12.65;53.79
29383;BME280;16365;51.598;7.668;2023-02-22T03:47:50;100733.19;;;12.61;54.32
29383;BME280;16365;51.598;7.668;2023-02-22T03:50:25;100721.59;;;12.59;53.90
29383;BME280;16365;51.598;7.668;2023-02-22T03:52:55;100723.88;;;12.57;54.24
29383;BME280;16365;51.598;7.668;2023-02-22T03:55:24;100719.84;;;12.54;54.04
29383;BME280;16365;51.598;7.668;2023-02-22T03:57:54;100718.44;;;12.48;54.33
29383;BME280;16365;51.598;7.668;2023-02-22T04:00:25;100720.25;;;12.44;53.95
29383;BME280;16365;51.598;7.668;2023-02-22T04:02:53;100722.91;;;12.41;53.57
29383;BME280;16365;51.598;7.668;2023-02-22T04:05:20;100721.94;;;12.37;54.41
29383;BME280;16365;51.598;7.668;2023-02-22T04:07:47;100722.16;;;12.31;54.25
29383;BME280;16365;51.598;7.668;2023-02-22T04:10:15;100713.22;;;12.26;54.04
29383;BME280;16365;51.598;7.668;2023-02-22T04:12:43;100715.53;;;12.24;54.17
29383;BME280;16365;51.598;7.668;2023-02-22T04:15:13;100714.56;;;12.20;54.35
29383;BME280;16365;51.598;7.668;2023-02-22T04:17:41;100722.09;;;12.19;54.72
29383;BME280;16365;51.598;7.668;2023-02-22T04:20:08;100716.53;;;12.19;54.12
29383;BME280;16365;51.598;7.668;2023-02-22T04:22:35;100716.53;;;12.19;54.24
29383;BME280;16365;51.598;7.668;2023-02-22T04:25:01;100713.41;;;12.21;55.09
29383;BME280;16365;51.598;7.668;2023-02-22T04:27:28;100710.97;;;12.19;54.79
29383;BME280;16365;51.598;7.668;2023-02-22T04:29:54;100710.97;;;12.19;54.35
29383;BME280;16365;51.598;7.668;2023-02-22T04:32:20;100707.41;;;12.19;54.19
29383;BME280;16365;51.598;7.668;2023-02-22T04:34:47;100709.22;;;12.15;54.01
29383;BME280;16365;51.598;7.668;2023-02-22T04:37:14;100708.41;;;12.14;54.14
29383;BME280;16365;51.598;7.668;2023-02-22T04:39:40;100705.94;;;12.13;54.73
29383;BME280;16365;51.598;7.668;2023-02-22T04:42:07;100703.97;;;12.13;53.75
29383;BME280;16365;51.598;7.668;2023-02-22T04:44:33;100701.91;;;12.10;54.36
29383;BME280;16365;51.598;7.668;2023-02-22T04:46:59;100705.81;;;12.09;54.08
29383;BME280;16365;51.598;7.668;2023-02-22T04:49:26;100699.78;;;12.07;54.13
29383;BME280;16365;51.598;7.668;2023-02-22T04:51:52;100702.09;;;12.05;53.61
29383;BME280;16365;51.598;7.668;2023-02-22T04:54:19;100704.72;;;12.01;53.50
29383;BME280;16365;51.598;7.668;2023-02-22T04:56:45;100693.00;;;11.96;53.56
29383;BME280;16365;51.598;7.668;2023-02-22T04:59:12;100697.59;;;11.92;53.61
29383;BME280;16365;51.598;7.668;2023-02-22T05:01:38;100686.69;;;11.87;53.57
29383;BME280;16365;51.598;7.668;2023-02-22T05:04:09;100693.56;;;11.80;54.02
29383;BME280;16365;51.598;7.668;2023-02-22T05:06:37;100691.47;;;11.77;53.86
29383;BME280;16365;51.598;7.668;2023-02-22T05:09:04;100682.97;;;11.74;54.04
29383;BME280;16365;51.598;7.668;2023-02-22T05:11:35;100678.94;;;11.71;54.24
29383;BME280;16365;51.598;7.668;2023-02-22T05:14:02;100674.53;;;11.70;54.39
29383;BME280;16365;51.598;7.668;2023-02-22T05:16:28;100678.44;;;11.69;54.11
29383;BME280;16365;51.598;7.668;2023-02-22T05:18:57;100670.78;;;11.66;54.42
29383;BME280;16365;51.598;7.668;2023-02-22T05:21:24;100670.78;;;11.66;53.86
29383;BME280;16365;51.598;7.668;2023-02-22T05:23:51;100673.06;;;11.64;54.06
29383;BME280;16365;51.598;7.668;2023-02-22T05:26:17;100672.94;;;11.61;53.72
29383;BME280;16365;51.598;7.668;2023-02-22T05:28:44;100667.25;;;11.57;54.00
29383;BME280;16365;51.598;7.668;2023-02-22T05:31:11;100667.91;;;11.54;53.91
29383;BME280;16365;51.598;7.668;2023-02-22T05:33:38;100668.09;;;11.49;53.76
29383;BME280;16365;51.598;7.668;2023-02-22T05:36:05;100664.38;;;11.45;53.27
29383;BME280;16365;51.598;7.668;2023-02-22T05:38:32;100665.06;;;11.42;53.35
29383;BME280;16365;51.598;7.668;2023-02-22T05:41:00;100674.38;;;11.37;53.75
29383;BME280;16365;51.598;7.668;2023-02-22T05:43:26;100663.94;;;11.34;53.32
29383;BME280;16365;51.598;7.668;2023-02-22T05:45:52;100671.00;;;11.31;53.68
29383;BME280;16365;51.598;7.668;2023-02-22T05:48:19;100663.66;;;11.27;54.01
29383;BME280;16365;51.598;7.668;2023-02-22T05:50:47;100667.91;;;11.24;53.68
29383;BME280;16365;51.598;7.668;2023-02-22T05:53:15;100677.72;;;11.22;53.97
29383;BME280;16365;51.598;7.668;2023-02-22T05:55:41;100681.16;;;11.19;53.84
29383;BME280;16365;51.598;7.668;2023-02-22T05:58:11;100680.66;;;11.17;53.76
29383;BME280;16365;51.598;7.668;2023-02-22T06:00:39;100670.25;;;11.14;53.57
29383;BME280;16365;51.598;7.668;2023-02-22T06:03:07;100671.41;;;11.13;53.99
29383;BME280;16365;51.598;7.668;2023-02-22T06:05:35;100674.00;;;11.09;53.67
29383;BME280;16365;51.598;7.668;2023-02-22T06:08:03;100670.44;;;11.09;53.96
29383;BME280;16365;51.598;7.668;2023-02-22T06:10:30;100674.66;;;11.06;53.64
29383;BME280;16365;51.598;7.668;2023-02-22T06:12:59;100678.13;;;11.03;53.70
29383;BME280;16365;51.598;7.668;2023-02-22T06:15:26;100674.84;;;11.01;53.86
29383;BME280;16365;51.598;7.668;2023-02-22T06:17:54;100670.78;;;10.98;53.80
29383;BME280;16365;51.598;7.668;2023-02-22T06:20:29;100667.84;;;10.95;53.88
29383;BME280;16365;51.598;7.668;2023-02-22T06:22:56;100672.94;;;10.93;53.82
29383;BME280;16365;51.598;7.668;2023-02-22T06:25:26;100677.16;;;10.90;53.64
29383;BME280;16365;51.598;7.668;2023-02-22T06:27:53;100673.44;;;10.86;54.07
29383;BME280;16365;51.598;7.668;2023-02-22T06:30:22;100673.78;;;10.85;54.15
29383;BME280;16365;51.598;7.668;2023-02-22T06:32:49;100676.03;;;10.82;53.75
29383;BME280;16365;51.598;7.668;2023-02-22T06:35:16;100677.53;;;10.80;54.25
29383;BME280;16365;51.598;7.668;2023-02-22T06:37:43;100674.25;;;10.78;53.97
29383;BME280;16365;51.598;7.668;2023-02-22T06:40:11;100671.81;;;10.76;54.33
29383;BME280;16365;51.598;7.668;2023-02-22T06:42:38;100670.19;;;10.75;54.32
29383;BME280;16365;51.598;7.668;2023-02-22T06:45:05;100676.09;;;10.74;53.53
29383;BME280;16365;51.598;7.668;2023-02-22T06:47:32;100679.16;;;10.72;53.62
29383;BME280;16365;51.598;7.668;2023-02-22T06:49:58;100674.78;;;10.71;54.14
29383;BME280;16365;51.598;7.668;2023-02-22T06:52:26;100676.75;;;10.71;54.34
29383;BME280;16365;51.598;7.668;2023-02-22T06:54:53;100674.78;;;10.71;53.90
29383;BME280;16365;51.598;7.668;2023-02-22T06:57:19;100673.97;;;10.71;54.24
29383;BME280;16365;51.598;7.668;2023-02-22T06:59:45;100676.75;;;10.71;53.85
29383;BME280;16365;51.598;7.668;2023-02-22T07:02:12;100681.47;;;10.70;54.00
29383;BME280;16365;51.598;7.668;2023-02-22T07:04:39;100672.34;;;10.70;53.90
29383;BME280;16365;51.598;7.668;2023-02-22T07:07:08;100675.13;;;10.70;53.93
29383;BME280;16365;51.598;7.668;2023-02-22T07:09:35;100677.88;;;10.70;53.96
29383;BME280;16365;51.598;7.668;2023-02-22T07:12:03;100675.44;;;10.68;53.82
29383;BME280;16365;51.598;7.668;2023-02-22T07:14:30;100680.50;;;10.66;53.69
29383;BME280;16365;51.598;7.668;2023-02-22T07:16:57;100671.72;;;10.64;53.92
29383;BME280;16365;51.598;7.668;2023-02-22T07:19:23;100677.56;;;10.63;53.84
29383;BME280;16365;51.598;7.668;2023-02-22T07:21:51;100668.94;;;10.64;54.02
29383;BME280;16365;51.598;7.668;2023-02-22T07:24:25;100678.88;;;10.65;53.78
29383;BME280;16365;51.598;7.668;2023-02-22T07:26:53;100674.63;;;10.68;53.96
29383;BME280;16365;51.598;7.668;2023-02-22T07:29:19;100669.22;;;10.71;54.05
29383;BME280;16365;51.598;7.668;2023-02-22T07:31:47;100675.59;;;10.72;54.10
29383;BME280;16365;51.598;7.668;2023-02-22T07:34:14;100670.84;;;10.72;54.26
29383;BME280;16365;51.598;7.668;2023-02-22T07:36:40;100673.31;;;10.74;54.15
29383;BME280;16365;51.598;7.668;2023-02-22T07:39:07;100671.34;;;10.74;54.19
29383;BME280;16365;51.598;7.668;2023-02-22T07:41:34;100672.31;;;10.78;53.94
29383;BME280;16365;51.598;7.668;2023-02-22T07:44:00;100671.97;;;10.80;54.03
29383;BME280;16365;51.598;7.668;2023-02-22T07:46:27;100670.03;;;10.80;54.12
29383;BME280;16365;51.598;7.668;2023-02-22T07:48:53;100677.19;;;10.81;53.98
29383;BME280;16365;51.598;7.668;2023-02-22T07:51:20;100673.59;;;10.81;53.91
29383;BME280;16365;51.598;7.668;2023-02-22T07:53:47;100671.66;;;10.81;53.92
29383;BME280;16365;51.598;7.668;2023-02-22T07:56:15;100664.13;;;10.82;53.82
29383;BME280;16365;51.598;7.668;2023-02-22T07:58:43;100666.59;;;10.84;53.65
29383;BME280;16365;51.598;7.668;2023-02-22T08:01:11;100663.50;;;10.85;54.02
29383;BME280;16365;51.598;7.668;2023-02-22T08:03:42;100662.00;;;10.88;54.37
29383;BME280;16365;51.598;7.668;2023-02-22T08:06:08;100660.19;;;10.92;54.01
29383;BME280;16365;51.598;7.668;2023-02-22T08:08:35;100664.75;;;10.96;54.37
29383;BME280;16365;51.598;7.668;2023-02-22T08:11:02;100661.78;;;11.01;54.39
29383;BME280;16365;51.598;7.668;2023-02-22T08:13:29;100653.63;;;11.05;54.36
29383;BME280;16365;51.598;7.668;2023-02-22T08:15:57;100640.38;;;11.11;53.91
29383;BME280;16365;51.598;7.668;2023-02-22T08:18:25;100641.34;;;11.15;54.02
29383;BME280;16365;51.598;7.668;2023-02-22T08:20:52;100644.44;;;11.22;54.04
29383;BME280;16365;51.598;7.668;2023-02-22T08:23:21;100644.22;;;11.27;54.28
29383;BME280;16365;51.598;7.668;2023-02-22T08:25:47;100642.53;;;11.35;53.85
29383;BME280;16365;51.598;7.668;2023-02-22T08:28:17;100639.38;;;11.45;54.09
29383;BME280;16365;51.598;7.668;2023-02-22T08:30:45;100634.13;;;11.52;54.73
29383;BME280;16365;51.598;7.668;2023-02-22T08:33:15;100635.19;;;11.59;54.61
29383;BME280;16365;51.598;7.668;2023-02-22T08:35:46;100636.78;;;11.69;54.66
29383;BME280;16365;51.598;7.668;2023-02-22T08:38:18;100627.13;;;11.75;54.21
29383;BME280;16365;51.598;7.668;2023-02-22T08:40:46;100622.66;;;11.83;54.31
29383;BME280;16365;51.598;7.668;2023-02-22T08:43:13;100627.69;;;11.90;54.47
29383;BME280;16365;51.598;7.668;2023-02-22T08:45:39;100626.31;;;11.96;54.01
29383;BME280;16365;51.598;7.668;2023-02-22T08:48:06;100624.59;;;12.03;54.42
29383;BME280;16365;51.598;7.668;2023-02-22T08:50:33;100618.84;;;12.08;54.37
29383;BME280;16365;51.598;7.668;2023-02-22T08:53:03;100614.38;;;12.16;54.51
29383;BME280;16365;51.598;7.668;2023-02-22T08:55:33;100620.22;;;12.23;53.87
29383;BME280;16365;51.598;7.668;2023-02-22T08:58:05;100612.47;;;12.29;53.90
29383;BME280;16365;51.598;7.668;2023-02-22T09:00:35;100612.34;;;12.38;54.79
29383;BME280;16365;51.598;7.668;2023-02-22T09:03:07;100604.63;;;12.43;54.06
29383;BME280;16365;51.598;7.668;2023-02-22T09:05:34;100607.31;;;12.52;54.68
29383;BME280;16365;51.598;7.668;2023-02-22T09:08:00;100604.44;;;12.60;54.67
29383;BME280;16365;51.598;7.668;2023-02-22T09:10:29;100605.50;;;12.68;54.86
29383;BME280;16365;51.598;7.668;2023-02-22T09:12:57;100606.66;;;12.79;54.17
29383;BME280;16365;51.598;7.668;2023-02-22T09:15:27;100604.59;;;12.89;54.33
29383;BME280;16365;51.598;7.668;2023-02-22T09:17:53;100606.13;;;12.98;54.90
29383;BME280;16365;51.598;7.668;2023-02-22T09:20:26;100594.53;;;13.08;54.84
29383;BME280;16365;51.598;7.668;2023-02-22T09:22:53;100596.50;;;13.20;54.55
29383;BME280;16365;51.598;7.668;2023-02-22T09:25:22;100594.91;;;13.31;54.90
29383;BME280;16365;51.598;7.668;2023-02-22T09:27:50;100593.63;;;13.41;54.30
29383;BME280;16365;51.598;7.668;2023-02-22T09:30:19;100586.38;;;13.52;54.11
29383;BME280;16365;51.598;7.668;2023-02-22T09:32:46;100587.63;;;13.67;54.09
29383;BME280;16365;51.598;7.668;2023-02-22T09:35:12;100576.72;;;13.74;54.52
29383;BME280;16365;51.598;7.668;2023-02-22T09:37:39;100581.44;;;13.86;54.01
29383;BME280;16365;51.598;7.668;2023-02-22T09:40:15;100582.09;;;13.95;53.94
29383;BME280;16365;51.598;7.668;2023-02-22T09:43:06;100581.59;;;14.05;53.48
29383;BME280;16365;51.598;7.668;2023-02-22T09:48:15;100582.53;;;14.25;53.56
29383;BME280;16365;51.598;7.668;2023-02-22T09:50:48;100583.19;;;14.34;53.80
29383;BME280;16365;51.598;7.668;2023-02-22T09:53:27;100573.06;;;14.42;53.62
29383;BME280;16365;51.598;7.668;2023-02-22T09:56:26;100581.75;;;14.53;53.34
29383;BME280;16365;51.598;7.668;2023-02-22T09:58:59;100574.91;;;14.66;53.77
29383;BME280;16365;51.598;7.668;2023-02-22T10:01:37;100571.97;;;14.75;53.62
29383;BME280;16365;51.598;7.668;2023-02-22T10:04:30;100580.59;;;14.85;53.29
29383;BME280;16365;51.598;7.668;2023-02-22T10:07:22;100571.78;;;14.99;53.48
29383;BME280;16365;51.598;7.668;2023-02-22T10:09:52;100562.91;;;15.13;53.89
29383;BME280;16365;51.598;7.668;2023-02-22T10:12:44;100558.75;;;15.23;53.10
29383;BME280;16365;51.598;7.668;2023-02-22T10:24:35;100550.78;;;15.76;52.51
29383;BME280;16365;51.598;7.668;2023-02-22T10:27:06;100549.91;;;15.91;53.07
29383;BME280;16365;51.598;7.668;2023-02-22T10:29:45;100541.28;;;16.00;52.17
29383;BME280;16365;51.598;7.668;2023-02-22T10:32:20;100540.34;;;16.11;52.45
29383;BME280;16365;51.598;7.668;2023-02-22T10:34:52;100546.94;;;16.23;52.24
29383;BME280;16365;51.598;7.668;2023-02-22T10:37:23;100530.34;;;16.33;53.07
29383;BME280;16365;51.598;7.668;2023-02-22T10:40:00;100539.69;;;16.41;52.62
29383;BME280;16365;51.598;7.668;2023-02-22T10:42:31;100539.94;;;16.55;52.83
29383;BME280;16365;51.598;7.668;2023-02-22T10:44:58;100530.13;;;16.65;52.29
29383;BME280;16365;51.598;7.668;2023-02-22T10:47:30;100531.13;;;16.76;52.39
29383;BME280;16365;51.598;7.668;2023-02-22T10:49:59;100530.88;;;16.85;52.23
29383;BME280;16365;51.598;7.668;2023-02-22T10:52:32;100535.03;;;16.94;51.66
29383;BME280;16365;51.598;7.668;2023-02-22T10:55:01;100532.41;;;17.05;51.93
29383;BME280;16365;51.598;7.668;2023-02-22T10:57:41;100520.19;;;17.17;51.84
29383;BME280;16365;51.598;7.668;2023-02-22T11:00:35;100521.47;;;17.23;50.40
29383;BME280;16365;51.598;7.668;2023-02-22T11:03:19;100524.44;;;17.34;50.54
29383;BME280;16365;51.598;7.668;2023-02-22T11:05:47;100517.81;;;17.45;50.89
29383;BME280;16365;51.598;7.668;2023-02-22T11:10:51;100508.75;;;17.59;50.13
29383;BME280;16365;51.598;7.668;2023-02-22T11:13:30;100520.06;;;17.66;49.60
29383;BME280;16365;51.598;7.668;2023-02-22T11:16:02;100516.63;;;17.77;50.72
29383;BME280;16365;51.598;7.668;2023-02-22T11:18:42;100515.13;;;17.86;50.61
29383;BME280;16365;51.598;7.668;2023-02-22T11:21:10;100510.78;;;17.92;50.37
29383;BME280;16365;51.598;7.668;2023-02-22T11:23:41;100511.69;;;18.00;50.21
29383;BME280;16365;51.598;7.668;2023-02-22T11:26:13;100508.19;;;18.10;50.20
29383;BME280;16365;51.598;7.668;2023-02-22T11:28:46;100505.91;;;18.19;49.91
29383;BME280;16365;51.598;7.668;2023-02-22T11:31:24;100499.53;;;18.26;48.90
29383;BME280;16365;51.598;7.668;2023-02-22T11:34:00;100497.66;;;18.37;49.43
29383;BME280;16365;51.598;7.668;2023-02-22T11:36:39;100499.31;;;18.45;48.66
29383;BME280;16365;51.598;7.668;2023-02-22T11:39:27;100495.00;;;18.55;48.50
29383;BME280;16365;51.598;7.668;2023-02-22T11:41:55;100489.91;;;18.68;49.50
29383;BME280;16365;51.598;7.668;2023-02-22T11:44:27;100481.19;;;18.77;48.31
29383;BME280;16365;51.598;7.668;2023-02-22T11:47:00;100480.81;;;18.85;48.20
29383;BME280;16365;51.598;7.668;2023-02-22T11:49:36;100480.94;;;18.96;49.12
29383;BME280;16365;51.598;7.668;2023-02-22T11:55:17;100470.59;;;19.14;46.92
29383;BME280;16365;51.598;7.668;2023-02-22T12:09:16;100468.44;;;19.59;46.19
29383;BME280;16365;51.598;7.668;2023-02-22T12:20:45;100441.22;;;19.92;45.91
29383;BME280;16365;51.598;7.668;2023-02-22T12:26:04;100441.25;;;20.06;45.21
29383;BME280;16365;51.598;7.668;2023-02-22T12:28:37;100431.22;;;20.12;45.59
29383;BME280;16365;51.598;7.668;2023-02-22T12:31:22;100432.41;;;20.15;44.57
29383;BME280;16365;51.598;7.668;2023-02-22T12:34:02;100424.78;;;20.22;44.50
29383;BME280;16365;51.598;7.668;2023-02-22T12:36:58;100434.84;;;20.27;44.38
29383;BME280;16365;51.598;7.668;2023-02-22T12:39:54;100430.03;;;20.31;44.03
29383;BME280;16365;51.598;7.668;2023-02-22T12:42:44;100426.03;;;20.36;44.57
29383;BME280;16365;51.598;7.668;2023-02-22T12:46:20;100425.19;;;20.39;43.40
29383;BME280;16365;51.598;7.668;2023-02-22T12:51:41;100422.41;;;20.49;42.76
29383;BME280;16365;51.598;7.668;2023-02-22T12:54:12;100414.75;;;20.53;43.62
29383;BME280;16365;51.598;7.668;2023-02-22T12:56:52;100415.56;;;20.54;42.29
29383;BME280;16365;51.598;7.668;2023-02-22T12:59:39;100414.34;;;20.59;41.51
29383;BME280;16365;51.598;7.668;2023-02-22T13:02:13;100411.13;;;20.67;42.14
29383;BME280;16365;51.598;7.668;2023-02-22T13:04:41;100407.50;;;20.74;43.37
29383;BME280;16365;51.598;7.668;2023-02-22T13:10:13;100401.06;;;20.81;41.16
29383;BME280;16365;51.598;7.668;2023-02-22T13:15:36;100392.97;;;20.93;42.23
29383;BME280;16365;51.598;7.668;2023-02-22T13:18:14;100391.78;;;20.94;40.44
29383;BME280;16365;51.598;7.668;2023-02-22T13:21:10;100389.34;;;20.96;41.01
29383;BME280;16365;51.598;7.668;2023-02-22T13:23:52;100388.13;;;21.01;40.76
29383;BME280;16365;51.598;7.668;2023-02-22T13:26:42;100389.72;;;21.02;40.43
29383;BME280;16365;51.598;7.668;2023-02-22T13:29:16;100383.28;;;21.05;40.86
29383;BME280;16365;51.598;7.668;2023-02-22T13:32:50;100384.50;;;21.04;40.08
29383;BME280;16365;51.598;7.668;2023-02-22T13:41:03;100390.09;;;21.11;40.35
29383;BME280;16365;51.598;7.668;2023-02-22T13:46:16;100392.06;;;21.25;40.65
29383;BME280;16365;51.598;7.668;2023-02-22T13:51:51;100383.63;;;21.21;39.92
29383;BME280;16365;51.598;7.668;2023-02-22T13:56:56;100377.97;;;21.25;41.38
29383;BME280;16365;51.598;7.668;2023-02-22T13:59:31;100379.19;;;21.24;40.10
29383;BME280;16365;51.598;7.668;2023-02-22T14:02:02;100377.97;;;21.28;41.97
29383;BME280;16365;51.598;7.668;2023-02-22T14:09:56;100373.94;;;21.33;40.79
29383;BME280;16365;51.598;7.668;2023-02-22T14:18:03;100380.78;;;21.28;39.40
29383;BME280;16365;51.598;7.668;2023-02-22T14:20:33;100376.75;;;21.29;40.37
29383;BME280;16365;51.598;7.668;2023-02-22T14:23:25;100382.38;;;21.26;39.14
29383;BME280;16365;51.598;7.668;2023-02-22T14:25:56;100381.56;;;21.29;39.78
29383;BME280;16365;51.598;7.668;2023-02-22T14:31:21;100379.19;;;21.27;39.23
29383;BME280;16365;51.598;7.668;2023-02-22T14:36:50;100380.41;;;21.23;37.88
29383;BME280;16365;51.598;7.668;2023-02-22T14:41:56;100376.78;;;21.19;38.25
29383;BME280;16365;51.598;7.668;2023-02-22T14:44:32;100378.41;;;21.16;38.00
29383;BME280;16365;51.598;7.668;2023-02-22T14:47:03;100378.81;;;21.15;38.62
29383;BME280;16365;51.598;7.668;2023-02-22T14:49:35;100376.81;;;21.12;38.37
29383;BME280;16365;51.598;7.668;2023-02-22T14:52:14;100376.00;;;21.08;38.04
29383;BME280;16365;51.598;7.668;2023-02-22T14:57:20;100369.56;;;21.07;38.11
29383;BME280;16365;51.598;7.668;2023-02-22T15:00:13;100372.41;;;21.03;37.81
29383;BME280;16365;51.598;7.668;2023-02-22T15:02:47;100372.00;;;21.01;38.85
29383;BME280;16365;51.598;7.668;2023-02-22T15:05:16;100379.28;;;20.95;38.78
29383;BME280;16365;51.598;7.668;2023-02-22T15:07:56;100374.47;;;20.89;37.64
29383;BME280;16365;51.598;7.668;2023-02-22T15:10:24;100368.00;;;20.88;39.67